Time;durP1;ratioP1;P1;durP2;ratioP2;P2;SDS_P1;SDS_P2;PMS_P1;PMS_P2;Temp;Humidity;BMP_temperature;BMP_pressure;BME280_temperature;BME280_humidity;BME280_pressure;Samples;Min_cycle;Max_cycle;Signal;HPM_P1;HPM_P2
2021/12/25 00:01:35;;;;;;;20.90;4.30;;;;;;;13.97;100.00;100630.06;6130619;23;20400;-89
2021/12/25 00:04:03;;;;;;;19.87;5.40;;;;;;;14.02;100.00;100619.25;6130323;23;20962;-90
2021/12/25 00:06:31;;;;;;;23.20;4.73;;;;;;;14.12;100.00;100625.09;6129977;23;20401;-89
2021/12/25 00:08:58;;;;;;;19.73;4.53;;;;;;;14.26;100.00;100625.84;6130537;23;20402;-89
2021/12/25 00:11:26;;;;;;;23.93;4.03;;;;;;;14.34;100.00;100614.63;6130436;23;20912;-89
2021/12/25 00:13:54;;;;;;;22.63;4.73;;;;;;;14.47;100.00;100615.38;6130273;23;20445;-89
2021/12/25 00:16:23;;;;;;;28.90;3.73;;;;;;;14.56;100.00;100609.63;6130231;23;20480;-86
2021/12/25 00:18:52;;;;;;;19.70;5.13;;;;;;;14.65;100.00;100611.03;6129595;23;20398;-86
2021/12/25 00:21:22;;;;;;;37.63;4.90;;;;;;;14.70;100.00;100602.94;6154905;23;20476;-86
2021/12/25 00:23:53;;;;;;;41.87;4.33;;;;;;;14.76;100.00;100600.16;6131034;23;20456;-86
2021/12/25 00:26:41;;;;;;;21.90;4.00;;;;;;;14.85;100.00;100601.53;6130586;23;20460;-86
2021/12/25 00:34:38;;;;;;;39.27;4.50;;;;;;;14.97;100.00;100587.91;6131944;23;20451;-86
2021/12/25 00:37:06;;;;;;;41.27;6.00;;;;;;;15.01;100.00;100575.34;6104583;23;20900;-87
2021/12/25 00:39:34;;;;;;;45.30;6.67;;;;;;;15.02;100.00;100571.53;6106142;23;20393;-87
2021/12/25 00:42:04;;;;;;;46.77;6.37;;;;;;;15.06;100.00;100582.91;6129781;23;20398;-86
2021/12/25 00:44:32;;;;;;;28.77;5.03;;;;;;;15.11;100.00;100570.16;6153611;23;20409;-86
2021/12/25 00:47:00;;;;;;;38.33;5.30;;;;;;;15.12;100.00;100554.50;6130263;23;20429;-86
2021/12/25 00:49:27;;;;;;;28.90;5.50;;;;;;;15.15;100.00;100554.03;6130350;23;20408;-87
2021/12/25 00:51:56;;;;;;;27.37;5.17;;;;;;;15.17;100.00;100558.25;6129635;23;20408;-86
2021/12/25 00:54:24;;;;;;;30.53;5.73;;;;;;;15.15;100.00;100538.38;6153824;23;20437;-86
2021/12/25 00:56:52;;;;;;;34.50;5.90;;;;;;;15.24;100.00;100555.41;6128948;23;20912;-86
2021/12/25 00:59:19;;;;;;;30.90;4.40;;;;;;;15.26;100.00;100561.53;6155300;23;20398;-86
2021/12/25 01:01:47;;;;;;;41.30;6.47;;;;;;;15.26;100.00;100555.19;6129847;23;20460;-86
2021/12/25 01:04:15;;;;;;;33.50;5.60;;;;;;;15.29;100.00;100554.72;6129351;23;20456;-86
2021/12/25 01:06:43;;;;;;;46.67;4.87;;;;;;;15.28;100.00;100553.03;6155130;23;20734;-86
2021/12/25 01:09:11;;;;;;;24.37;4.23;;;;;;;15.26;100.00;100544.16;6152223;23;20402;-85
2021/12/25 01:11:41;;;;;;;19.63;4.10;;;;;;;15.18;100.00;100548.94;6129574;23;20918;-86
2021/12/25 01:14:26;;;;;;;33.50;4.57;;;;;;;15.19;100.00;100550.63;6130865;23;20445;-86
2021/12/25 01:25:18;;;;;;;47.17;11.07;;;;;;;15.09;100.00;100538.44;6133782;23;20405;-86
2021/12/25 01:30:17;;;;;;;22.97;5.93;;;;;;;15.02;100.00;100538.50;6131171;23;20923;-87
2021/12/25 01:38:09;;;;;;;29.67;7.00;;;;;;;14.97;100.00;100518.25;6157087;23;20725;-86
2021/12/25 01:48:40;;;;;;;18.37;3.17;;;;;;;14.90;100.00;100507.31;6155761;23;20405;-88
2021/12/25 01:51:08;;;;;;;18.17;3.20;;;;;;;14.86;100.00;100506.91;6131286;23;20408;-86
2021/12/25 01:53:35;;;;;;;25.30;4.10;;;;;;;14.89;100.00;100511.13;6131118;23;20527;-86
2021/12/25 01:56:04;;;;;;;26.40;4.73;;;;;;;14.87;100.00;100507.75;6130858;23;20903;-88
2021/12/25 01:58:34;;;;;;;24.07;3.50;;;;;;;14.88;100.00;100505.84;6130578;23;20488;-87
2021/12/25 02:01:02;;;;;;;16.00;3.57;;;;;;;14.85;100.00;100496.13;6155655;23;20416;-87
2021/12/25 02:03:30;;;;;;;17.23;3.20;;;;;;;14.84;100.00;100499.94;6130967;23;20393;-86
2021/12/25 02:05:59;;;;;;;19.93;4.60;;;;;;;14.82;100.00;100489.16;6131456;23;20498;-89
2021/12/25 02:08:27;;;;;;;23.33;4.03;;;;;;;14.82;100.00;100477.31;6131397;23;20402;-88
2021/12/25 02:10:55;;;;;;;19.43;3.30;;;;;;;14.82;100.00;100482.81;6130662;23;20413;-88
2021/12/25 02:13:23;;;;;;;28.10;3.33;;;;;;;14.80;100.00;100480.31;6130553;23;20444;-88
2021/12/25 02:15:53;;;;;;;23.97;3.77;;;;;;;14.71;100.00;100469.84;6130742;23;20460;-87
2021/12/25 02:18:27;;;;;;;23.67;2.70;;;;;;;14.81;100.00;100481.16;6131709;23;20476;-87
2021/12/25 02:21:17;;;;;;;12.07;2.50;;;;;;;14.78;100.00;100476.13;6131772;23;20424;-87
2021/12/25 02:23:46;;;;;;;17.33;2.27;;;;;;;14.72;100.00;100472.34;6135092;23;20413;-88
2021/12/25 02:26:14;;;;;;;18.57;3.13;;;;;;;14.67;100.00;100474.09;6154811;23;20402;-87
2021/12/25 02:28:41;;;;;;;19.40;2.97;;;;;;;14.67;100.00;100465.84;6156716;23;20401;-87
2021/12/25 02:31:12;;;;;;;16.17;2.37;;;;;;;14.57;100.00;100447.13;6131417;23;20402;-87
2021/12/25 02:33:39;;;;;;;17.23;2.67;;;;;;;14.62;100.00;100466.56;6154895;23;20512;-86
2021/12/25 02:36:12;;;;;;;20.37;3.10;;;;;;;14.56;100.00;100453.69;6131347;23;20397;-86
2021/12/25 02:38:40;;;;;;;18.47;2.87;;;;;;;14.61;100.00;100464.03;6156253;23;20468;-88
2021/12/25 02:41:08;;;;;;;25.80;3.00;;;;;;;14.62;100.00;100461.06;6130857;23;20429;-86
2021/12/25 02:43:36;;;;;;;16.80;2.50;;;;;;;14.63;100.00;100468.22;6131096;23;20409;-87
2021/12/25 02:46:05;;;;;;;14.57;1.93;;;;;;;14.63;100.00;100461.88;6131138;23;20397;-87
2021/12/25 02:48:34;;;;;;;14.00;2.97;;;;;;;14.59;100.00;100466.16;6130207;23;21029;-87
2021/12/25 02:51:02;;;;;;;10.20;2.60;;;;;;;14.62;100.00;100468.47;6129986;23;20401;-87
2021/12/25 02:53:29;;;;;;;15.80;2.57;;;;;;;14.58;100.00;100458.97;6130354;23;20445;-88
2021/12/25 02:55:57;;;;;;;13.63;2.70;;;;;;;14.56;100.00;100445.44;6130448;23;20397;-89
2021/12/25 02:58:25;;;;;;;15.23;2.10;;;;;;;14.52;100.00;100447.81;6130801;23;20401;-87
2021/12/25 03:01:05;;;;;;;13.53;2.20;;;;;;;14.51;100.00;100448.88;6131061;23;20401;-88
2021/12/25 03:03:35;;;;;;;15.17;1.83;;;;;;;14.53;100.00;100443.16;6154719;23;20413;-88
2021/12/25 03:06:06;;;;;;;9.53;1.70;;;;;;;14.52;100.00;100433.22;6129646;23;20927;-88
2021/12/25 03:08:34;;;;;;;14.37;2.67;;;;;;;14.50;100.00;100430.69;6130135;23;20923;-88
2021/12/25 03:11:06;;;;;;;14.70;2.43;;;;;;;14.54;100.00;100435.75;6130301;23;20404;-88
2021/12/25 03:13:45;;;;;;;18.67;2.50;;;;;;;14.51;100.00;100431.53;6129710;23;20955;-88
2021/12/25 03:16:13;;;;;;;16.30;2.37;;;;;;;14.54;100.00;100430.25;6132714;23;20398;-88
2021/12/25 03:18:49;;;;;;;13.10;2.03;;;;;;;14.56;100.00;100430.84;6129889;23;20460;-90
2021/12/25 03:21:17;;;;;;;16.00;2.80;;;;;;;14.54;100.00;100431.09;6131266;23;20716;-88
2021/12/25 03:23:49;;;;;;;16.83;3.27;;;;;;;14.58;100.00;100437.81;6130112;23;20440;-88
2021/12/25 03:26:16;;;;;;;23.87;3.63;;;;;;;14.60;100.00;100421.09;6131030;23;20725;-88
2021/12/25 03:28:46;;;;;;;19.80;2.73;;;;;;;14.64;100.00;100386.53;6129528;23;20401;-88
2021/12/25 03:31:19;;;;;;;17.80;2.87;;;;;;;14.68;100.00;100385.00;6129799;23;20402;-88
2021/12/25 03:33:52;;;;;;;19.60;2.60;;;;;;;14.62;100.00;100372.19;6131251;23;20472;-88
2021/12/25 03:36:20;;;;;;;16.47;2.10;;;;;;;14.66;100.00;100367.88;6106104;23;20786;-88
2021/12/25 03:38:48;;;;;;;19.87;4.20;;;;;;;14.69;100.00;100364.69;6131114;23;20732;-88
2021/12/25 03:41:16;;;;;;;17.43;2.93;;;;;;;14.67;100.00;100345.66;6129703;23;20408;-87
2021/12/25 03:43:43;;;;;;;14.10;2.63;;;;;;;14.67;100.00;100342.06;6129527;23;20746;-87
2021/12/25 03:46:12;;;;;;;20.77;2.83;;;;;;;14.65;100.00;100345.03;6106536;23;20424;-88
2021/12/25 03:59:46;;;;;;;11.60;2.10;;;;;;;14.76;100.00;100324.19;6154358;23;20460;-87
2021/12/25 04:02:21;;;;;;;21.97;2.53;;;;;;;14.75;100.00;100328.00;6130182;23;20463;-88
2021/12/25 04:04:50;;;;;;;18.17;2.03;;;;;;;14.75;100.00;100339.00;6131453;23;20428;-87
2021/12/25 04:10:05;;;;;;;21.90;2.70;;;;;;;14.73;100.00;100317.25;6133622;23;20401;-87
2021/12/25 04:12:33;;;;;;;10.03;1.93;;;;;;;14.75;100.00;100317.00;6130819;23;20397;-87
2021/12/25 04:15:00;;;;;;;17.67;2.70;;;;;;;14.71;100.00;100313.03;6129677;23;20532;-87
2021/12/25 04:17:28;;;;;;;15.77;2.97;;;;;;;14.72;100.00;100312.81;6129474;23;20463;-87
2021/12/25 04:19:56;;;;;;;19.17;2.83;;;;;;;14.73;100.00;100311.72;6129811;23;20508;-86
2021/12/25 04:22:30;;;;;;;14.27;2.50;;;;;;;14.72;100.00;100304.56;6129964;23;20868;-87
2021/12/25 04:24:58;;;;;;;18.53;3.63;;;;;;;14.72;100.00;100289.97;6131147;23;20404;-88
2021/12/25 04:27:26;;;;;;;18.77;2.93;;;;;;;14.76;100.00;100293.94;6129792;23;20401;-87
2021/12/25 04:30:18;;;;;;;12.17;2.17;;;;;;;14.78;100.00;100284.38;6129201;23;20402;-88
2021/12/25 04:49:49;;;;;;;18.47;3.20;;;;;;;15.00;100.00;100270.94;6133715;23;20413;-88
2021/12/25 05:06:54;;;;;;;23.00;3.53;;;;;;;15.23;100.00;100258.28;6129526;23;20401;-88
2021/12/25 05:09:22;;;;;;;30.70;4.70;;;;;;;15.23;100.00;100252.78;6070808;23;20423;-88
2021/12/25 05:11:50;;;;;;;30.03;4.20;;;;;;;15.24;100.00;100251.72;6070753;23;20439;-88
2021/12/25 05:14:19;;;;;;;30.60;4.33;;;;;;;15.21;100.00;100251.09;6046881;23;20498;-88
2021/12/25 05:16:48;;;;;;;24.50;3.40;;;;;;;15.24;100.00;100248.97;6070396;23;20494;-88
2021/12/25 05:19:17;;;;;;;17.00;2.90;;;;;;;15.24;100.00;100233.28;6070080;23;20439;-88
2021/12/25 05:21:45;;;;;;;18.33;3.40;;;;;;;15.25;100.00;100228.59;6047122;23;20906;-88
2021/12/25 05:24:13;;;;;;;23.40;3.83;;;;;;;15.26;100.00;100222.03;6070383;23;20434;-87
2021/12/25 05:26:42;;;;;;;29.70;3.00;;;;;;;15.21;100.00;100207.06;6070124;23;20439;-88
2021/12/25 05:29:11;;;;;;;20.90;3.13;;;;;;;15.23;100.00;100208.72;6070620;23;20399;-87
2021/12/25 05:31:41;;;;;;;30.33;3.40;;;;;;;15.24;100.00;100205.75;6069742;23;20403;-89
2021/12/25 05:34:09;;;;;;;27.73;3.57;;;;;;;15.23;100.00;100189.47;6094221;23;20490;-88
2021/12/25 05:36:37;;;;;;;31.70;5.03;;;;;;;15.25;100.00;100184.56;6046550;23;20407;-88
2021/12/25 05:39:09;;;;;;;32.43;4.67;;;;;;;15.27;100.00;100199.78;6094458;23;20403;-88
2021/12/25 05:41:37;;;;;;;21.70;4.00;;;;;;;15.27;100.00;100204.44;6071316;23;20410;-87
2021/12/25 05:44:05;;;;;;;29.10;5.30;;;;;;;15.19;100.00;100176.19;6070290;23;20874;-88
2021/12/25 05:46:37;;;;;;;41.63;6.00;;;;;;;15.28;100.00;100184.94;6131082;23;20404;-87
2021/12/25 05:49:05;;;;;;;26.70;4.37;;;;;;;15.32;100.00;100193.56;6129891;23;20409;-88
2021/12/25 05:51:32;;;;;;;30.27;5.70;;;;;;;15.32;100.00;100190.81;6129158;23;20476;-87
2021/12/25 05:54:01;;;;;;;31.43;5.00;;;;;;;15.34;100.00;100183.97;6127959;23;20405;-88
2021/12/25 05:56:29;;;;;;;41.23;4.23;;;;;;;15.35;100.00;100173.81;6105553;23;20406;-87
2021/12/25 05:58:57;;;;;;;22.47;3.53;;;;;;;15.37;100.00;100171.66;6129775;23;20408;-87
2021/12/25 06:01:26;;;;;;;27.10;5.40;;;;;;;15.37;100.00;100158.72;6129637;23;20460;-87
2021/12/25 06:03:56;;;;;;;34.43;5.10;;;;;;;15.36;100.00;100181.00;6129702;23;20798;-89
2021/12/25 06:06:24;;;;;;;25.20;5.70;;;;;;;15.37;100.00;100177.16;6152733;23;20402;-88
2021/12/25 06:08:53;;;;;;;30.27;4.73;;;;;;;15.37;100.00;100188.19;6130908;23;20402;-88
2021/12/25 06:11:24;;;;;;;34.13;3.90;;;;;;;15.40;100.00;100187.66;6107324;23;20422;-88
2021/12/25 06:13:58;;;;;;;49.17;19.67;;;;;;;15.39;100.00;100181.34;6107423;23;20410;-88
2021/12/25 06:16:27;;;;;;;34.53;5.60;;;;;;;15.41;100.00;100201.22;6108592;23;20427;-88
2021/12/25 06:18:56;;;;;;;25.93;4.47;;;;;;;15.39;100.00;100191.53;6154420;23;20437;-87
2021/12/25 06:21:26;;;;;;;27.03;3.47;;;;;;;15.43;100.00;100204.56;6130290;23;20405;-87
2021/12/25 06:23:56;;;;;;;15.27;2.50;;;;;;;15.42;100.00;100196.53;6131156;23;20401;-87
2021/12/25 06:26:34;;;;;;;19.57;3.47;;;;;;;15.43;100.00;100187.19;6110975;23;20734;-88
2021/12/25 06:29:04;;;;;;;30.40;4.73;;;;;;;15.46;100.00;100200.50;6130491;23;20401;-87
2021/12/25 06:31:31;;;;;;;26.87;4.53;;;;;;;15.41;100.00;100179.19;6106646;23;20408;-88
2021/12/25 06:33:59;;;;;;;23.53;4.37;;;;;;;15.42;100.00;100186.38;6130414;23;20775;-87
2021/12/25 06:36:27;;;;;;;25.33;3.90;;;;;;;15.40;100.00;100176.66;6131223;23;20393;-87
2021/12/25 06:38:55;;;;;;;21.80;4.00;;;;;;;15.41;100.00;100183.84;6130373;23;20401;-88
2021/12/25 06:41:26;;;;;;;40.20;6.43;;;;;;;15.43;100.00;100196.31;6130861;23;20401;-88
2021/12/25 06:43:54;;;;;;;32.20;4.30;;;;;;;15.41;100.00;100197.63;6130683;23;20468;-87
2021/12/25 06:46:21;;;;;;;31.20;5.57;;;;;;;15.35;100.00;100184.81;6130669;23;20408;-87
2021/12/25 06:48:51;;;;;;;38.23;4.43;;;;;;;15.40;100.00;100205.03;6130216;23;20409;-88
2021/12/25 06:51:18;;;;;;;32.57;5.40;;;;;;;15.41;100.00;100194.84;6155379;23;20481;-88
2021/12/25 06:53:46;;;;;;;27.23;4.70;;;;;;;15.39;100.00;100186.03;6106382;23;20468;-88
2021/12/25 06:56:14;;;;;;;25.50;3.43;;;;;;;15.41;100.00;100195.69;6130906;23;20546;-91
2021/12/25 06:58:42;;;;;;;29.00;5.10;;;;;;;15.37;100.00;100191.78;6130748;23;20402;-88
2021/12/25 07:01:10;;;;;;;37.33;4.77;;;;;;;15.42;100.00;100180.84;6130475;23;20908;-87
2021/12/25 07:03:38;;;;;;;30.83;4.30;;;;;;;15.44;100.00;100206.25;6130199;23;20437;-87
2021/12/25 07:06:05;;;;;;;27.70;4.10;;;;;;;15.41;100.00;100211.38;6130264;23;20429;-88
2021/12/25 07:08:33;;;;;;;24.00;3.30;;;;;;;15.40;100.00;100201.44;6129767;23;20493;-88
2021/12/25 07:11:00;;;;;;;33.37;4.30;;;;;;;15.37;100.00;100204.69;6106449;23;20401;-88
2021/12/25 07:13:29;;;;;;;31.17;5.10;;;;;;;15.39;100.00;100213.56;6130801;23;20433;-87
2021/12/25 07:15:58;;;;;;;32.43;4.43;;;;;;;15.40;100.00;100237.25;6129643;23;20445;-87
2021/12/25 07:18:27;;;;;;;28.40;4.10;;;;;;;15.37;100.00;100221.22;6130186;23;20397;-87
2021/12/25 07:20:54;;;;;;;42.40;5.10;;;;;;;15.32;100.00;100229.34;6105427;23;20524;-87
2021/12/25 07:23:23;;;;;;;26.03;4.40;;;;;;;15.32;100.00;100235.69;6130212;23;20904;-87
2021/12/25 07:25:51;;;;;;;33.87;4.80;;;;;;;15.30;100.00;100231.50;6156449;23;20398;-87
2021/12/25 07:28:19;;;;;;;38.20;3.87;;;;;;;15.28;100.00;100228.13;6130609;23;20398;-88
2021/12/25 07:30:50;;;;;;;24.40;4.07;;;;;;;15.28;100.00;100222.63;6106041;23;20404;-88
2021/12/25 07:33:20;;;;;;;27.00;3.80;;;;;;;15.24;100.00;100214.00;6129361;23;20401;-88
2021/12/25 07:35:53;;;;;;;22.40;3.67;;;;;;;15.26;100.00;100224.78;6154593;23;20437;-88
2021/12/25 07:38:22;;;;;;;30.90;5.07;;;;;;;15.23;100.00;100205.97;6130610;23;20398;-88
2021/12/25 07:40:49;;;;;;;18.90;3.30;;;;;;;15.28;100.00;100217.13;6130282;23;20405;-88
2021/12/25 07:43:17;;;;;;;33.40;4.63;;;;;;;15.25;100.00;100210.19;6130418;23;20397;-88
2021/12/25 07:45:48;;;;;;;25.80;3.93;;;;;;;15.28;100.00;100211.63;6107058;23;20452;-88
2021/12/25 07:48:19;;;;;;;24.50;4.43;;;;;;;15.26;100.00;100217.38;6155943;23;20408;-88
2021/12/25 07:50:50;;;;;;;22.30;4.27;;;;;;;15.28;100.00;100230.91;6130395;23;20492;-88
2021/12/25 07:53:18;;;;;;;27.23;3.17;;;;;;;15.26;100.00;100213.78;6155537;23;20405;-87
2021/12/25 07:55:49;;;;;;;20.60;3.63;;;;;;;15.28;100.00;100215.22;6129922;23;20468;-87
2021/12/25 07:58:17;;;;;;;24.17;3.80;;;;;;;15.27;100.00;100205.28;6131227;23;20409;-88
2021/12/25 08:00:45;;;;;;;30.67;8.40;;;;;;;15.31;100.00;100216.66;6129503;23;20709;-88
2021/12/25 08:03:15;;;;;;;22.37;4.20;;;;;;;15.30;100.00;100215.81;6129521;23;20468;-88
2021/12/25 08:05:45;;;;;;;13.47;4.83;;;;;;;15.29;100.00;100207.78;6131165;23;20404;-87
2021/12/25 08:08:15;;;;;;;16.80;5.93;;;;;;;15.34;100.00;100216.19;6154865;23;20416;-87
2021/12/25 08:10:43;;;;;;;14.90;4.80;;;;;;;15.33;100.00;100217.25;6105931;23;20405;-87
2021/12/25 08:13:13;;;;;;;32.17;10.80;;;;;;;15.38;100.00;100221.00;6129649;23;20401;-88
2021/12/25 08:15:42;;;;;;;25.53;3.80;;;;;;;15.33;100.00;100201.59;6130002;23;20444;-87
2021/12/25 08:18:10;;;;;;;15.13;2.30;;;;;;;15.42;100.00;100218.56;6154207;23;20800;-87
2021/12/25 08:20:38;;;;;;;15.37;1.80;;;;;;;15.45;100.00;100223.59;6129625;23;20492;-87
2021/12/25 08:23:05;;;;;;;9.37;1.70;;;;;;;15.48;100.00;100221.22;6128805;23;20443;-88
2021/12/25 08:25:34;;;;;;;11.17;3.10;;;;;;;15.51;100.00;100222.66;6130378;23;20472;-88
2021/12/25 08:28:01;;;;;;;18.10;2.93;;;;;;;15.57;100.00;100224.50;6130064;23;20790;-88
2021/12/25 08:30:29;;;;;;;13.50;2.70;;;;;;;15.63;100.00;100226.28;6130442;23;20413;-88
2021/12/25 08:32:59;;;;;;;17.13;3.30;;;;;;;15.69;100.00;100230.84;6154512;23;20401;-88
2021/12/25 08:35:27;;;;;;;12.93;2.80;;;;;;;15.73;100.00;100226.53;6130265;23;20444;-88
2021/12/25 08:37:55;;;;;;;13.13;2.63;;;;;;;15.75;100.00;100221.63;6130397;23;20411;-88
2021/12/25 08:40:24;;;;;;;12.40;2.40;;;;;;;15.81;100.00;100234.41;6128568;23;20409;-88
2021/12/25 08:42:58;;;;;;;13.53;2.60;;;;;;;15.84;100.00;100231.19;6130103;23;20402;-88
2021/12/25 08:45:45;;;;;;;10.70;2.63;;;;;;;15.92;100.00;100234.66;6154002;23;20401;-88
2021/12/25 08:48:21;;;;;;;22.03;3.63;;;;;;;15.89;100.00;100233.22;6133550;23;20424;-88
2021/12/25 08:50:54;;;;;;;12.53;2.40;;;;;;;15.97;100.00;100245.81;6106125;23;20401;-88
2021/12/25 08:53:23;;;;;;;15.63;3.13;;;;;;;15.98;100.00;100248.28;6130194;23;20481;-88
2021/12/25 08:55:54;;;;;;;15.53;2.43;;;;;;;16.05;100.00;100256.44;6129467;23;20445;-88
2021/12/25 08:58:22;;;;;;;18.63;2.70;;;;;;;16.12;100.00;100257.16;6106368;23;20484;-87
2021/12/25 09:00:54;;;;;;;12.23;1.90;;;;;;;16.24;100.00;100266.25;6105015;23;20409;-87
2021/12/25 09:03:25;;;;;;;16.70;2.40;;;;;;;16.41;100.00;100278.19;6130264;23;20397;-87
2021/12/25 09:05:57;;;;;;;13.57;2.37;;;;;;;16.53;100.00;100279.03;6130046;23;20393;-92
2021/12/25 09:08:32;;;;;;;11.47;3.13;;;;;;;16.65;100.00;100280.91;6131126;23;20734;-91
2021/12/25 09:11:01;;;;;;;19.80;3.13;;;;;;;16.68;100.00;100289.56;6105432;23;20410;-90
2021/12/25 09:13:33;;;;;;;14.97;3.30;;;;;;;16.77;100.00;100309.31;6130060;23;20402;-90
2021/12/25 09:16:00;;;;;;;30.60;6.87;;;;;;;16.83;100.00;100291.78;6105606;23;20444;-90
2021/12/25 09:18:28;;;;;;;25.20;4.50;;;;;;;16.98;100.00;100305.03;6081917;23;20405;-90
2021/12/25 09:20:56;;;;;;;28.40;4.37;;;;;;;17.00;100.00;100314.75;6128674;23;20429;-89
2021/12/25 09:23:24;;;;;;;20.93;3.90;;;;;;;17.02;100.00;100312.56;6129058;23;20460;-90
2021/12/25 09:25:54;;;;;;;15.43;3.70;;;;;;;17.12;100.00;100323.00;6129830;23;20421;-89
2021/12/25 09:28:24;;;;;;;17.30;3.40;;;;;;;17.20;100.00;100337.22;6129777;23;20798;-88
2021/12/25 09:30:52;;;;;;;22.80;4.97;;;;;;;17.21;100.00;100341.66;6153635;23;20410;-89
2021/12/25 09:33:21;;;;;;;20.27;3.67;;;;;;;17.21;100.00;100344.44;6128789;23;20398;-90
2021/12/25 09:35:50;;;;;;;29.07;5.03;;;;;;;17.23;100.00;100347.78;6153469;23;20496;-89
2021/12/25 09:38:18;;;;;;;16.70;3.77;;;;;;;17.23;100.00;100353.31;6129483;23;20464;-89
2021/12/25 09:40:45;;;;;;;23.23;4.73;;;;;;;17.29;100.00;100367.22;6129395;23;20455;-89
2021/12/25 09:43:14;;;;;;;30.00;4.57;;;;;;;17.34;100.00;100370.06;6130494;23;20409;-89
2021/12/25 09:45:42;;;;;;;27.43;4.70;;;;;;;17.33;100.00;100365.63;6131472;23;20730;-88
2021/12/25 09:48:10;;;;;;;26.87;5.60;;;;;;;17.39;100.00;100367.41;6155090;23;20409;-91
2021/12/25 09:50:38;;;;;;;21.77;4.30;;;;;;;17.52;100.00;100372.59;6131581;23;20401;-89
2021/12/25 09:53:12;;;;;;;24.27;3.10;;;;;;;17.63;100.00;100382.78;6154956;23;20398;-88
2021/12/25 09:55:40;;;;;;;23.50;3.60;;;;;;;17.68;100.00;100382.91;6154942;23;20441;-88
2021/12/25 09:58:08;;;;;;;27.17;4.77;;;;;;;17.75;100.00;100382.72;6131087;23;20461;-90
2021/12/25 10:00:38;;;;;;;18.00;3.77;;;;;;;17.76;100.00;100404.59;6130599;23;21003;-88
2021/12/25 10:03:22;;;;;;;22.33;4.63;;;;;;;17.82;100.00;100406.38;6134404;23;20749;-90
2021/12/25 10:05:52;;;;;;;13.93;3.43;;;;;;;17.89;100.00;100415.34;6131906;23;20456;-90
2021/12/25 10:08:25;;;;;;;30.27;3.67;;;;;;;17.94;100.00;100418.19;6131677;23;20398;-89
2021/12/25 10:10:56;;;;;;;27.73;5.13;;;;;;;17.92;100.00;100412.06;6130642;23;20734;-88
2021/12/25 10:13:35;;;;;;;13.40;3.03;;;;;;;18.02;100.00;100427.16;6131233;23;20723;-90
2021/12/25 10:16:29;;;;;;;26.33;5.30;;;;;;;18.03;100.00;100434.38;6130572;23;20528;-91
2021/12/25 10:19:18;;;;;;;17.00;4.10;;;;;;;18.11;100.00;100442.25;6130666;23;20402;-90
2021/12/25 10:21:46;;;;;;;27.00;4.73;;;;;;;18.16;100.00;100434.03;6107195;23;20402;-88
2021/12/25 10:24:18;;;;;;;24.37;4.47;;;;;;;18.20;100.00;100440.75;6130377;23;20468;-88
2021/12/25 10:26:48;;;;;;;27.10;4.50;;;;;;;18.18;100.00;100452.06;6130890;23;20413;-90
2021/12/25 10:29:22;;;;;;;30.63;5.73;;;;;;;18.16;100.00;100450.63;6154296;23;20466;-88
2021/12/25 10:31:51;;;;;;;33.57;4.97;;;;;;;18.14;100.00;100444.50;6130723;23;20433;-88
2021/12/25 10:34:23;;;;;;;27.73;5.23;;;;;;;18.22;100.00;100452.41;6131159;23;20495;-88
2021/12/25 10:36:50;;;;;;;20.33;4.00;;;;;;;18.21;100.00;100447.97;6106049;23;20471;-88
2021/12/25 10:39:21;;;;;;;21.97;4.87;;;;;;;18.29;100.00;100464.13;6131601;23;20409;-90
2021/12/25 10:42:10;;;;;;;33.53;4.10;;;;;;;18.22;100.00;100452.41;6154394;23;20480;-90
2021/12/25 10:44:41;;;;;;;25.33;4.17;;;;;;;18.36;100.00;100472.25;6132494;23;20433;-89
2021/12/25 10:47:18;;;;;;;23.63;4.10;;;;;;;18.37;100.00;100472.00;6107098;23;20401;-90
2021/12/25 10:49:56;;;;;;;17.97;3.07;;;;;;;18.43;100.00;100501.47;6155581;23;20732;-88
2021/12/25 10:52:29;;;;;;;26.47;4.10;;;;;;;18.45;100.00;100496.50;6106376;23;20403;-89
2021/12/25 10:55:21;;;;;;;29.83;6.03;;;;;;;18.44;100.00;100492.06;6129915;23;20406;-86
2021/12/25 10:58:01;;;;;;;17.33;3.10;;;;;;;18.45;100.00;100488.22;6130943;23;20405;-88
2021/12/25 11:00:33;;;;;;;17.93;3.90;;;;;;;18.56;100.00;100505.81;6130065;23;20409;-87
2021/12/25 11:03:03;;;;;;;24.20;3.67;;;;;;;18.67;100.00;100496.59;6154134;23;20426;-86
2021/12/25 11:05:37;;;;;;;28.60;4.17;;;;;;;18.75;100.00;100503.66;6154793;23;20444;-88
2021/12/25 11:08:07;;;;;;;25.67;5.47;;;;;;;18.80;100.00;100510.09;6105896;23;20903;-88
2021/12/25 11:10:48;;;;;;;21.40;4.80;;;;;;;18.75;100.00;100509.19;6131520;23;20404;-87
2021/12/25 11:13:24;;;;;;;52.70;18.73;;;;;;;18.69;100.00;100502.72;6154753;23;20402;-90
2021/12/25 11:16:01;;;;;;;45.20;13.97;;;;;;;18.70;100.00;100511.88;6153990;23;20452;-87
2021/12/25 11:18:49;;;;;;;79.80;28.90;;;;;;;18.62;100.00;100511.22;6131826;23;20433;-85
2021/12/25 11:21:17;;;;;;;49.97;17.50;;;;;;;18.71;100.00;100513.53;6154065;23;20435;-87
2021/12/25 11:23:47;;;;;;;32.77;10.57;;;;;;;18.89;100.00;100516.88;6131221;23;20398;-90
2021/12/25 11:26:15;;;;;;;51.83;19.97;;;;;;;19.02;100.00;100504.63;6129829;23;20444;-89
2021/12/25 11:28:43;;;;;;;230.73;104.50;;;;;;;19.04;100.00;100513.50;6129735;23;20408;-89
2021/12/25 11:31:11;;;;;;;121.07;45.83;;;;;;;19.09;100.00;100502.47;6130525;23;20904;-87
2021/12/25 11:33:39;;;;;;;83.17;35.00;;;;;;;19.14;100.00;100496.19;6129662;23;20410;-90
2021/12/25 11:36:08;;;;;;;113.87;54.20;;;;;;;19.25;100.00;100509.06;6130683;23;20492;-89
2021/12/25 11:38:36;;;;;;;73.97;33.97;;;;;;;19.25;100.00;100520.97;6130904;23;20409;-91
2021/12/25 11:41:07;;;;;;;68.20;29.30;;;;;;;19.31;100.00;100508.88;6130640;23;20402;-88
2021/12/25 11:43:40;;;;;;;45.30;20.00;;;;;;;19.35;100.00;100498.13;6129864;23;20416;-88
2021/12/25 11:46:09;;;;;;;65.87;28.43;;;;;;;19.46;100.00;100504.63;6129014;23;20413;-88
2021/12/25 11:48:37;;;;;;;59.67;24.60;;;;;;;19.59;100.00;100498.72;6106692;23;20435;-89
2021/12/25 11:51:06;;;;;;;51.20;18.27;;;;;;;19.62;100.00;100501.84;6130391;23;20444;-88
2021/12/25 11:58:49;;;;;;;26.47;5.17;;;;;;;19.75;100.00;100513.59;6131856;23;20405;-89
2021/12/25 12:01:31;;;;;;;43.20;17.00;;;;;;;19.73;100.00;100515.81;6129916;23;20405;-88
2021/12/25 12:04:10;;;;;;;22.40;7.30;;;;;;;19.63;100.00;100517.34;6129390;23;20433;-89
2021/12/25 12:06:47;;;;;;;17.63;8.07;;;;;;;19.53;100.00;100524.72;6129902;23;20907;-90
2021/12/25 12:09:24;;;;;;;29.93;11.37;;;;;;;19.44;100.00;100509.56;6156355;23;20526;-91
2021/12/25 12:12:04;;;;;;;23.73;7.10;;;;;;;19.58;100.00;100520.06;6130791;23;20402;-90
2021/12/25 12:14:32;;;;;;;23.03;6.60;;;;;;;19.53;100.00;100517.22;6130754;23;20476;-91
2021/12/25 12:17:04;;;;;;;14.97;1.83;;;;;;;19.49;99.70;100515.19;6130876;23;21010;-91
2021/12/25 12:19:37;;;;;;;19.13;5.57;;;;;;;19.55;98.89;100514.19;6130039;23;20772;-91
2021/12/25 12:22:15;;;;;;;30.03;10.00;;;;;;;19.58;98.64;100519.25;6132812;23;20401;-92
2021/12/25 12:27:34;;;;;;;17.97;4.00;;;;;;;19.61;98.25;100522.34;6156061;23;20797;-92
2021/12/25 12:30:07;;;;;;;14.23;3.83;;;;;;;19.48;97.49;100510.75;6130859;23;20390;-92
2021/12/25 12:32:46;;;;;;;17.73;2.20;;;;;;;19.58;98.37;100519.25;6130267;23;20410;-92
2021/12/25 12:35:33;;;;;;;24.60;9.57;;;;;;;19.59;98.22;100512.59;6131173;23;20481;-92
2021/12/25 12:38:30;;;;;;;16.53;3.60;;;;;;;19.75;97.89;100519.16;6154944;23;20419;-91
2021/12/25 12:41:39;;;;;;;13.80;3.43;;;;;;;19.99;97.88;100521.38;6129922;23;20420;-92
2021/12/25 12:44:14;;;;;;;14.50;4.00;;;;;;;19.97;96.89;100514.41;6131408;23;20865;-92
2021/12/25 12:46:49;;;;;;;36.93;11.53;;;;;;;19.82;98.10;100515.06;6130917;23;20437;-92
2021/12/25 12:49:28;;;;;;;24.60;4.63;;;;;;;19.50;100.00;100506.66;6130366;23;20413;-91